Main page
METAR-TAF:

METAR-TAF

Airports :

Amundsen–Scott South Pole Station

Amundsen-Scott South Pole Station, Antarctica

latitude: 90-00S, longitude: 000-00E, elevation: 2830 m

Current weather observation

The report was made 6 hours and 40 minutes ago, at 05:50 UTC
Wind 7 kt from the East/Northeast
Temperature -33°C
Humidity 1,627%
Pressure 971 hPa
Visibility 10 km or more
Few clouds at a height of 4000 ft
Scattered clouds at a height of 10000 ft

METAR: NZSP 030550Z 06007KT 9999 FEW040 SCT100 M33/ A2867 RMK CLN AIR 06007KT ALL WNDS GRID SDG/HDG

Time: 01:30 (12:30 UTC)

Forecast

The report was made 7 hours and 15 minutes ago, at 05:15 UTC
Forecast valid from 03 at 05 UTC to 04 at 03 UTC
Wind 7 kt from the East/Northeast
Visibility: 0409 m
Few clouds at a height of 3000 ft
Broken clouds at a height of 10000 ft

TAF: NZSP 030515Z 0305/0403 06007KT 9999 FEW030 BKN100 QNH2854INS LAST NO AMDS AFT 0305 NEXT 0409 ALL WINDS GRID

Weather observations and forecasts of more than 4000 airports (METAR and TAF reports).

The available stations are represented by yellow and red dots on the map.

Hover mouse over dot to see the name of the station.

Then click to see weather observations and forecasts.

To change the map : click on the green buttons with a black cross to zoom in, on the green button with a dash to zoom out, or on the green arrows for adjacent maps.


METAR-TAF: